sensor_id;sensor_type;location;lat;lon;timestamp;P1;durP1;ratioP1;P2;durP2;ratioP2
71303;SDS011;59091;47.446;19.148;2023-02-15T00:01:40;90.88;;;38.63;;
71303;SDS011;59091;47.446;19.148;2023-02-15T00:04:08;90.70;;;39.10;;
71303;SDS011;59091;47.446;19.148;2023-02-15T00:06:34;81.25;;;36.58;;
71303;SDS011;59091;47.446;19.148;2023-02-15T00:09:00;81.28;;;36.08;;
71303;SDS011;59091;47.446;19.148;2023-02-15T00:11:26;78.93;;;33.40;;
71303;SDS011;59091;47.446;19.148;2023-02-15T00:16:54;76.82;;;31.63;;
71303;SDS011;59091;47.446;19.148;2023-02-15T00:19:20;90.45;;;34.05;;
71303;SDS011;59091;47.446;19.148;2023-02-15T00:21:46;73.10;;;32.63;;
71303;SDS011;59091;47.446;19.148;2023-02-15T00:24:13;78.00;;;32.33;;
71303;SDS011;59091;47.446;19.148;2023-02-15T00:26:40;76.60;;;32.65;;
71303;SDS011;59091;47.446;19.148;2023-02-15T00:29:06;76.88;;;31.27;;
71303;SDS011;59091;47.446;19.148;2023-02-15T00:31:33;69.60;;;28.88;;
71303;SDS011;59091;47.446;19.148;2023-02-15T00:34:03;64.40;;;30.50;;
71303;SDS011;59091;47.446;19.148;2023-02-15T00:36:35;73.75;;;30.60;;
71303;SDS011;59091;47.446;19.148;2023-02-15T00:39:01;71.18;;;30.60;;
71303;SDS011;59091;47.446;19.148;2023-02-15T00:41:29;66.40;;;30.15;;
71303;SDS011;59091;47.446;19.148;2023-02-15T00:43:55;70.78;;;28.80;;
71303;SDS011;59091;47.446;19.148;2023-02-15T00:46:21;66.32;;;29.27;;
71303;SDS011;59091;47.446;19.148;2023-02-15T00:48:46;60.78;;;28.55;;
71303;SDS011;59091;47.446;19.148;2023-02-15T00:51:11;73.70;;;30.02;;
71303;SDS011;59091;47.446;19.148;2023-02-15T00:53:37;74.78;;;28.98;;
71303;SDS011;59091;47.446;19.148;2023-02-15T00:56:02;67.63;;;29.63;;
71303;SDS011;59091;47.446;19.148;2023-02-15T00:58:28;69.00;;;29.45;;
71303;SDS011;59091;47.446;19.148;2023-02-15T01:00:53;78.10;;;31.13;;
71303;SDS011;59091;47.446;19.148;2023-02-15T01:03:19;67.93;;;28.42;;
71303;SDS011;59091;47.446;19.148;2023-02-15T01:05:46;70.88;;;28.88;;
71303;SDS011;59091;47.446;19.148;2023-02-15T01:08:12;73.90;;;28.33;;
71303;SDS011;59091;47.446;19.148;2023-02-15T01:10:38;65.07;;;28.77;;
71303;SDS011;59091;47.446;19.148;2023-02-15T01:13:04;75.05;;;28.70;;
71303;SDS011;59091;47.446;19.148;2023-02-15T01:15:33;63.15;;;28.48;;
71303;SDS011;59091;47.446;19.148;2023-02-15T01:18:00;65.43;;;28.35;;
71303;SDS011;59091;47.446;19.148;2023-02-15T01:20:26;63.40;;;28.05;;
71303;SDS011;59091;47.446;19.148;2023-02-15T01:22:53;65.53;;;28.10;;
71303;SDS011;59091;47.446;19.148;2023-02-15T01:25:20;63.28;;;27.27;;
71303;SDS011;59091;47.446;19.148;2023-02-15T01:27:46;63.92;;;28.17;;
71303;SDS011;59091;47.446;19.148;2023-02-15T01:30:13;63.15;;;26.90;;
71303;SDS011;59091;47.446;19.148;2023-02-15T01:32:40;65.88;;;28.23;;
71303;SDS011;59091;47.446;19.148;2023-02-15T01:35:06;71.78;;;29.33;;
71303;SDS011;59091;47.446;19.148;2023-02-15T01:37:32;60.85;;;27.23;;
71303;SDS011;59091;47.446;19.148;2023-02-15T01:39:58;60.28;;;26.98;;
71303;SDS011;59091;47.446;19.148;2023-02-15T01:42:27;69.85;;;28.88;;
71303;SDS011;59091;47.446;19.148;2023-02-15T01:44:57;68.25;;;27.15;;
71303;SDS011;59091;47.446;19.148;2023-02-15T01:55:33;62.20;;;26.00;;
71303;SDS011;59091;47.446;19.148;2023-02-15T01:58:11;58.65;;;25.77;;
71303;SDS011;59091;47.446;19.148;2023-02-15T02:00:37;67.15;;;27.63;;
71303;SDS011;59091;47.446;19.148;2023-02-15T02:03:03;66.40;;;29.15;;
71303;SDS011;59091;47.446;19.148;2023-02-15T02:05:28;69.22;;;28.27;;
71303;SDS011;59091;47.446;19.148;2023-02-15T02:07:56;63.72;;;28.30;;
71303;SDS011;59091;47.446;19.148;2023-02-15T02:10:24;68.93;;;29.98;;
71303;SDS011;59091;47.446;19.148;2023-02-15T02:12:54;72.35;;;31.98;;
71303;SDS011;59091;47.446;19.148;2023-02-15T02:15:28;69.72;;;29.35;;
71303;SDS011;59091;47.446;19.148;2023-02-15T02:21:08;67.97;;;31.55;;
71303;SDS011;59091;47.446;19.148;2023-02-15T02:23:43;75.40;;;32.47;;
71303;SDS011;59091;47.446;19.148;2023-02-15T02:39:59;67.35;;;31.05;;
71303;SDS011;59091;47.446;19.148;2023-02-15T02:42:31;65.85;;;29.20;;
71303;SDS011;59091;47.446;19.148;2023-02-15T02:45:07;66.10;;;30.58;;
71303;SDS011;59091;47.446;19.148;2023-02-15T02:50:29;72.38;;;29.77;;
71303;SDS011;59091;47.446;19.148;2023-02-15T02:52:56;68.43;;;30.38;;
71303;SDS011;59091;47.446;19.148;2023-02-15T02:55:30;63.00;;;30.08;;
71303;SDS011;59091;47.446;19.148;2023-02-15T02:58:01;68.15;;;30.67;;
71303;SDS011;59091;47.446;19.148;2023-02-15T03:00:38;69.90;;;29.95;;
71303;SDS011;59091;47.446;19.148;2023-02-15T03:03:18;67.72;;;29.73;;
71303;SDS011;59091;47.446;19.148;2023-02-15T03:05:52;67.03;;;30.27;;
71303;SDS011;59091;47.446;19.148;2023-02-15T03:08:20;68.05;;;29.05;;
71303;SDS011;59091;47.446;19.148;2023-02-15T03:10:51;73.05;;;31.60;;
71303;SDS011;59091;47.446;19.148;2023-02-15T03:13:19;70.88;;;29.40;;
71303;SDS011;59091;47.446;19.148;2023-02-15T03:15:45;81.25;;;32.45;;
71303;SDS011;59091;47.446;19.148;2023-02-15T03:18:34;72.38;;;32.72;;
71303;SDS011;59091;47.446;19.148;2023-02-15T03:21:02;74.43;;;33.50;;
71303;SDS011;59091;47.446;19.148;2023-02-15T03:23:31;74.47;;;33.65;;
71303;SDS011;59091;47.446;19.148;2023-02-15T03:26:07;68.78;;;32.47;;
71303;SDS011;59091;47.446;19.148;2023-02-15T03:28:34;82.53;;;33.28;;
71303;SDS011;59091;47.446;19.148;2023-02-15T03:31:04;73.10;;;33.35;;
71303;SDS011;59091;47.446;19.148;2023-02-15T03:33:31;73.10;;;32.80;;
71303;SDS011;59091;47.446;19.148;2023-02-15T03:38:42;76.88;;;34.35;;
71303;SDS011;59091;47.446;19.148;2023-02-15T03:41:14;78.10;;;33.75;;
71303;SDS011;59091;47.446;19.148;2023-02-15T03:43:45;65.13;;;32.35;;
71303;SDS011;59091;47.446;19.148;2023-02-15T03:46:24;80.72;;;32.85;;
71303;SDS011;59091;47.446;19.148;2023-02-15T03:49:05;74.22;;;32.47;;
71303;SDS011;59091;47.446;19.148;2023-02-15T03:51:54;73.78;;;32.08;;
71303;SDS011;59091;47.446;19.148;2023-02-15T03:54:26;79.15;;;33.03;;
71303;SDS011;59091;47.446;19.148;2023-02-15T03:57:17;76.30;;;33.25;;
71303;SDS011;59091;47.446;19.148;2023-02-15T04:00:03;70.70;;;31.98;;
71303;SDS011;59091;47.446;19.148;2023-02-15T04:03:00;78.68;;;33.95;;
71303;SDS011;59091;47.446;19.148;2023-02-15T04:05:40;77.15;;;33.47;;
71303;SDS011;59091;47.446;19.148;2023-02-15T04:08:07;87.63;;;35.65;;
71303;SDS011;59091;47.446;19.148;2023-02-15T04:10:33;74.07;;;32.60;;
71303;SDS011;59091;47.446;19.148;2023-02-15T04:13:17;79.93;;;34.22;;
71303;SDS011;59091;47.446;19.148;2023-02-15T04:15:43;75.07;;;34.03;;
71303;SDS011;59091;47.446;19.148;2023-02-15T04:18:27;78.55;;;32.80;;
71303;SDS011;59091;47.446;19.148;2023-02-15T04:21:11;76.95;;;35.03;;
71303;SDS011;59091;47.446;19.148;2023-02-15T04:26:39;74.07;;;32.72;;
71303;SDS011;59091;47.446;19.148;2023-02-15T04:29:04;83.93;;;33.65;;
71303;SDS011;59091;47.446;19.148;2023-02-15T04:31:30;80.95;;;34.42;;
71303;SDS011;59091;47.446;19.148;2023-02-15T04:33:55;81.05;;;33.80;;
71303;SDS011;59091;47.446;19.148;2023-02-15T04:36:20;79.13;;;35.80;;
71303;SDS011;59091;47.446;19.148;2023-02-15T04:38:46;84.70;;;36.78;;
71303;SDS011;59091;47.446;19.148;2023-02-15T04:41:11;90.00;;;38.20;;
71303;SDS011;59091;47.446;19.148;2023-02-15T04:43:38;82.97;;;35.85;;
71303;SDS011;59091;47.446;19.148;2023-02-15T04:46:03;79.15;;;35.05;;
71303;SDS011;59091;47.446;19.148;2023-02-15T04:48:29;78.97;;;35.30;;
71303;SDS011;59091;47.446;19.148;2023-02-15T04:50:55;80.13;;;35.22;;
71303;SDS011;59091;47.446;19.148;2023-02-15T04:53:20;81.65;;;36.03;;
71303;SDS011;59091;47.446;19.148;2023-02-15T04:55:45;80.07;;;35.00;;
71303;SDS011;59091;47.446;19.148;2023-02-15T04:58:11;77.00;;;34.65;;
71303;SDS011;59091;47.446;19.148;2023-02-15T05:00:36;78.65;;;34.45;;
71303;SDS011;59091;47.446;19.148;2023-02-15T05:03:02;85.50;;;34.95;;
71303;SDS011;59091;47.446;19.148;2023-02-15T05:05:27;71.63;;;34.33;;
71303;SDS011;59091;47.446;19.148;2023-02-15T05:07:53;67.28;;;33.88;;
71303;SDS011;59091;47.446;19.148;2023-02-15T05:10:18;70.72;;;32.88;;
71303;SDS011;59091;47.446;19.148;2023-02-15T05:12:44;73.15;;;33.00;;
71303;SDS011;59091;47.446;19.148;2023-02-15T05:15:10;80.45;;;35.88;;
71303;SDS011;59091;47.446;19.148;2023-02-15T05:17:35;73.90;;;33.80;;
71303;SDS011;59091;47.446;19.148;2023-02-15T05:20:00;74.53;;;32.97;;
71303;SDS011;59091;47.446;19.148;2023-02-15T05:22:26;77.45;;;33.58;;
71303;SDS011;59091;47.446;19.148;2023-02-15T05:24:51;72.55;;;32.33;;
71303;SDS011;59091;47.446;19.148;2023-02-15T05:30:19;72.32;;;32.08;;
71303;SDS011;59091;47.446;19.148;2023-02-15T05:32:45;70.18;;;32.67;;
71303;SDS011;59091;47.446;19.148;2023-02-15T05:35:12;73.13;;;32.13;;
71303;SDS011;59091;47.446;19.148;2023-02-15T05:37:40;74.78;;;32.00;;
71303;SDS011;59091;47.446;19.148;2023-02-15T05:40:05;73.65;;;34.25;;
71303;SDS011;59091;47.446;19.148;2023-02-15T05:42:32;73.20;;;33.58;;
71303;SDS011;59091;47.446;19.148;2023-02-15T05:44:57;72.15;;;32.85;;
71303;SDS011;59091;47.446;19.148;2023-02-15T05:47:23;69.18;;;31.52;;
71303;SDS011;59091;47.446;19.148;2023-02-15T05:49:48;76.63;;;33.53;;
71303;SDS011;59091;47.446;19.148;2023-02-15T05:52:14;70.95;;;31.15;;
71303;SDS011;59091;47.446;19.148;2023-02-15T05:54:39;73.35;;;32.47;;
71303;SDS011;59091;47.446;19.148;2023-02-15T05:57:05;70.40;;;32.13;;
71303;SDS011;59091;47.446;19.148;2023-02-15T05:59:30;72.25;;;32.88;;
71303;SDS011;59091;47.446;19.148;2023-02-15T06:01:55;65.55;;;31.23;;
71303;SDS011;59091;47.446;19.148;2023-02-15T06:04:21;72.35;;;31.52;;
71303;SDS011;59091;47.446;19.148;2023-02-15T06:06:46;79.30;;;33.53;;
71303;SDS011;59091;47.446;19.148;2023-02-15T06:09:12;70.60;;;30.10;;
71303;SDS011;59091;47.446;19.148;2023-02-15T06:11:38;71.95;;;32.42;;
71303;SDS011;59091;47.446;19.148;2023-02-15T06:14:03;72.65;;;32.75;;
71303;SDS011;59091;47.446;19.148;2023-02-15T06:16:28;71.57;;;32.35;;
71303;SDS011;59091;47.446;19.148;2023-02-15T06:18:54;69.38;;;30.88;;
71303;SDS011;59091;47.446;19.148;2023-02-15T06:21:19;71.68;;;32.65;;
71303;SDS011;59091;47.446;19.148;2023-02-15T06:23:45;65.97;;;31.48;;
71303;SDS011;59091;47.446;19.148;2023-02-15T06:26:10;69.82;;;30.48;;
71303;SDS011;59091;47.446;19.148;2023-02-15T06:28:36;69.88;;;30.25;;
71303;SDS011;59091;47.446;19.148;2023-02-15T06:31:02;67.97;;;30.13;;
71303;SDS011;59091;47.446;19.148;2023-02-15T06:33:28;67.32;;;30.30;;
71303;SDS011;59091;47.446;19.148;2023-02-15T06:35:55;67.57;;;30.92;;
71303;SDS011;59091;47.446;19.148;2023-02-15T06:38:21;73.07;;;33.10;;
71303;SDS011;59091;47.446;19.148;2023-02-15T06:40:47;80.10;;;35.05;;
71303;SDS011;59091;47.446;19.148;2023-02-15T06:43:12;70.47;;;32.75;;
71303;SDS011;59091;47.446;19.148;2023-02-15T06:45:38;73.40;;;33.15;;
71303;SDS011;59091;47.446;19.148;2023-02-15T06:48:04;69.78;;;31.50;;
71303;SDS011;59091;47.446;19.148;2023-02-15T06:50:31;73.63;;;31.40;;
71303;SDS011;59091;47.446;19.148;2023-02-15T06:52:57;65.50;;;30.17;;
71303;SDS011;59091;47.446;19.148;2023-02-15T06:55:23;67.28;;;29.13;;
71303;SDS011;59091;47.446;19.148;2023-02-15T06:57:49;66.80;;;29.50;;
71303;SDS011;59091;47.446;19.148;2023-02-15T07:00:15;68.18;;;29.63;;
71303;SDS011;59091;47.446;19.148;2023-02-15T07:02:41;62.60;;;29.50;;
71303;SDS011;59091;47.446;19.148;2023-02-15T07:05:06;61.63;;;28.75;;
71303;SDS011;59091;47.446;19.148;2023-02-15T07:07:32;70.63;;;29.30;;
71303;SDS011;59091;47.446;19.148;2023-02-15T07:09:57;66.05;;;29.15;;
71303;SDS011;59091;47.446;19.148;2023-02-15T07:12:22;75.72;;;29.58;;
71303;SDS011;59091;47.446;19.148;2023-02-15T07:15:06;67.82;;;29.75;;
71303;SDS011;59091;47.446;19.148;2023-02-15T07:17:34;65.90;;;29.83;;
71303;SDS011;59091;47.446;19.148;2023-02-15T07:20:00;66.65;;;29.27;;
71303;SDS011;59091;47.446;19.148;2023-02-15T07:22:27;75.65;;;29.73;;
71303;SDS011;59091;47.446;19.148;2023-02-15T07:24:53;64.40;;;28.40;;
71303;SDS011;59091;47.446;19.148;2023-02-15T07:27:20;70.72;;;29.88;;
71303;SDS011;59091;47.446;19.148;2023-02-15T07:29:46;62.90;;;30.00;;
71303;SDS011;59091;47.446;19.148;2023-02-15T07:32:11;61.75;;;29.02;;
71303;SDS011;59091;47.446;19.148;2023-02-15T07:34:36;65.78;;;30.80;;
71303;SDS011;59091;47.446;19.148;2023-02-15T07:37:02;70.80;;;31.42;;
71303;SDS011;59091;47.446;19.148;2023-02-15T07:39:27;69.07;;;31.58;;
71303;SDS011;59091;47.446;19.148;2023-02-15T07:41:53;65.35;;;31.05;;
71303;SDS011;59091;47.446;19.148;2023-02-15T07:44:18;60.33;;;28.38;;
71303;SDS011;59091;47.446;19.148;2023-02-15T07:46:44;67.05;;;28.92;;
71303;SDS011;59091;47.446;19.148;2023-02-15T07:49:09;77.75;;;30.63;;
71303;SDS011;59091;47.446;19.148;2023-02-15T07:51:35;70.28;;;31.42;;
71303;SDS011;59091;47.446;19.148;2023-02-15T07:54:00;72.25;;;31.63;;
71303;SDS011;59091;47.446;19.148;2023-02-15T07:56:25;74.13;;;32.05;;
71303;SDS011;59091;47.446;19.148;2023-02-15T07:58:51;67.63;;;29.40;;
71303;SDS011;59091;47.446;19.148;2023-02-15T08:01:38;63.55;;;29.45;;
71303;SDS011;59091;47.446;19.148;2023-02-15T08:04:04;71.57;;;30.30;;
71303;SDS011;59091;47.446;19.148;2023-02-15T08:06:31;62.50;;;29.40;;
71303;SDS011;59091;47.446;19.148;2023-02-15T08:08:58;66.88;;;30.45;;
71303;SDS011;59091;47.446;19.148;2023-02-15T08:11:27;66.53;;;31.40;;
71303;SDS011;59091;47.446;19.148;2023-02-15T08:14:07;68.32;;;29.90;;
71303;SDS011;59091;47.446;19.148;2023-02-15T08:21:34;66.00;;;30.25;;
71303;SDS011;59091;47.446;19.148;2023-02-15T08:24:01;71.93;;;32.30;;
71303;SDS011;59091;47.446;19.148;2023-02-15T08:26:28;73.85;;;33.17;;
71303;SDS011;59091;47.446;19.148;2023-02-15T08:28:54;76.07;;;31.98;;
71303;SDS011;59091;47.446;19.148;2023-02-15T08:31:20;70.00;;;32.30;;
71303;SDS011;59091;47.446;19.148;2023-02-15T08:33:46;71.38;;;32.15;;
71303;SDS011;59091;47.446;19.148;2023-02-15T08:36:14;62.80;;;29.35;;
71303;SDS011;59091;47.446;19.148;2023-02-15T08:38:41;64.63;;;28.85;;
71303;SDS011;59091;47.446;19.148;2023-02-15T08:41:11;61.40;;;28.75;;
71303;SDS011;59091;47.446;19.148;2023-02-15T08:43:44;57.83;;;27.55;;
71303;SDS011;59091;47.446;19.148;2023-02-15T08:46:11;56.53;;;26.45;;
71303;SDS011;59091;47.446;19.148;2023-02-15T08:48:38;55.17;;;27.13;;
71303;SDS011;59091;47.446;19.148;2023-02-15T08:51:04;59.22;;;25.17;;
71303;SDS011;59091;47.446;19.148;2023-02-15T08:53:36;49.63;;;23.98;;
71303;SDS011;59091;47.446;19.148;2023-02-15T08:56:02;49.60;;;23.70;;
71303;SDS011;59091;47.446;19.148;2023-02-15T08:58:28;52.40;;;21.98;;
71303;SDS011;59091;47.446;19.148;2023-02-15T09:00:55;49.45;;;22.02;;
71303;SDS011;59091;47.446;19.148;2023-02-15T09:03:21;49.75;;;22.08;;
71303;SDS011;59091;47.446;19.148;2023-02-15T09:05:46;46.50;;;21.80;;
71303;SDS011;59091;47.446;19.148;2023-02-15T09:08:11;49.95;;;23.52;;
71303;SDS011;59091;47.446;19.148;2023-02-15T09:10:37;51.65;;;25.02;;
71303;SDS011;59091;47.446;19.148;2023-02-15T09:13:02;52.50;;;25.05;;
71303;SDS011;59091;47.446;19.148;2023-02-15T09:15:28;52.97;;;26.35;;
71303;SDS011;59091;47.446;19.148;2023-02-15T09:17:53;59.05;;;27.05;;
71303;SDS011;59091;47.446;19.148;2023-02-15T09:20:18;55.42;;;25.27;;
71303;SDS011;59091;47.446;19.148;2023-02-15T09:22:44;51.58;;;25.13;;
71303;SDS011;59091;47.446;19.148;2023-02-15T09:25:09;59.00;;;25.30;;
71303;SDS011;59091;47.446;19.148;2023-02-15T09:27:35;54.15;;;25.00;;
71303;SDS011;59091;47.446;19.148;2023-02-15T09:30:01;50.08;;;23.27;;
71303;SDS011;59091;47.446;19.148;2023-02-15T09:32:28;48.45;;;22.65;;
71303;SDS011;59091;47.446;19.148;2023-02-15T09:34:53;50.47;;;22.33;;
71303;SDS011;59091;47.446;19.148;2023-02-15T09:37:18;46.80;;;22.17;;
71303;SDS011;59091;47.446;19.148;2023-02-15T09:39:44;44.90;;;21.75;;
71303;SDS011;59091;47.446;19.148;2023-02-15T09:50:33;55.40;;;23.85;;
71303;SDS011;59091;47.446;19.148;2023-02-15T09:59:01;38.03;;;20.05;;
71303;SDS011;59091;47.446;19.148;2023-02-15T10:28:23;47.80;;;23.23;;
71303;SDS011;59091;47.446;19.148;2023-02-15T10:30:56;50.50;;;24.55;;
71303;SDS011;59091;47.446;19.148;2023-02-15T10:36:23;53.53;;;23.48;;
71303;SDS011;59091;47.446;19.148;2023-02-15T10:42:17;49.33;;;24.83;;
71303;SDS011;59091;47.446;19.148;2023-02-15T10:50:51;51.15;;;25.52;;
71303;SDS011;59091;47.446;19.148;2023-02-15T11:07:04;53.80;;;24.58;;
71303;SDS011;59091;47.446;19.148;2023-02-15T11:09:40;49.65;;;24.48;;
71303;SDS011;59091;47.446;19.148;2023-02-15T11:12:14;48.70;;;23.60;;
71303;SDS011;59091;47.446;19.148;2023-02-15T11:17:32;45.17;;;22.83;;
71303;SDS011;59091;47.446;19.148;2023-02-15T11:20:04;46.90;;;22.95;;
71303;SDS011;59091;47.446;19.148;2023-02-15T11:22:41;45.88;;;23.05;;
71303;SDS011;59091;47.446;19.148;2023-02-15T11:25:14;54.03;;;26.42;;
71303;SDS011;59091;47.446;19.148;2023-02-15T11:27:44;50.95;;;24.38;;
71303;SDS011;59091;47.446;19.148;2023-02-15T11:30:15;53.28;;;25.67;;
71303;SDS011;59091;47.446;19.148;2023-02-15T11:32:44;51.22;;;26.20;;
71303;SDS011;59091;47.446;19.148;2023-02-15T11:37:43;49.72;;;24.70;;
71303;SDS011;59091;47.446;19.148;2023-02-15T11:42:51;43.17;;;22.77;;
71303;SDS011;59091;47.446;19.148;2023-02-15T11:45:27;44.53;;;22.90;;
71303;SDS011;59091;47.446;19.148;2023-02-15T11:47:57;46.25;;;22.88;;
71303;SDS011;59091;47.446;19.148;2023-02-15T11:50:28;47.90;;;25.40;;
71303;SDS011;59091;47.446;19.148;2023-02-15T11:53:00;54.05;;;26.50;;
71303;SDS011;59091;47.446;19.148;2023-02-15T11:55:28;49.72;;;25.60;;
71303;SDS011;59091;47.446;19.148;2023-02-15T11:57:57;49.13;;;25.33;;
71303;SDS011;59091;47.446;19.148;2023-02-15T12:00:44;47.95;;;24.83;;
71303;SDS011;59091;47.446;19.148;2023-02-15T12:03:14;42.10;;;21.98;;
71303;SDS011;59091;47.446;19.148;2023-02-15T12:05:44;49.47;;;23.45;;
71303;SDS011;59091;47.446;19.148;2023-02-15T12:08:20;49.15;;;24.55;;
71303;SDS011;59091;47.446;19.148;2023-02-15T12:13:23;43.10;;;21.48;;
71303;SDS011;59091;47.446;19.148;2023-02-15T12:15:52;43.28;;;22.20;;
71303;SDS011;59091;47.446;19.148;2023-02-15T12:18:39;43.20;;;21.13;;
71303;SDS011;59091;47.446;19.148;2023-02-15T12:21:10;38.92;;;20.45;;
71303;SDS011;59091;47.446;19.148;2023-02-15T12:23:43;39.15;;;19.83;;
71303;SDS011;59091;47.446;19.148;2023-02-15T12:26:14;38.40;;;19.73;;
71303;SDS011;59091;47.446;19.148;2023-02-15T12:28:48;35.47;;;18.05;;
71303;SDS011;59091;47.446;19.148;2023-02-15T12:31:33;40.58;;;20.33;;
71303;SDS011;59091;47.446;19.148;2023-02-15T12:34:08;44.85;;;20.05;;
71303;SDS011;59091;47.446;19.148;2023-02-15T12:36:47;37.40;;;19.58;;
71303;SDS011;59091;47.446;19.148;2023-02-15T12:39:22;43.63;;;22.80;;
71303;SDS011;59091;47.446;19.148;2023-02-15T12:49:32;47.10;;;24.33;;
71303;SDS011;59091;47.446;19.148;2023-02-15T12:54:43;50.75;;;25.58;;
71303;SDS011;59091;47.446;19.148;2023-02-15T13:05:04;58.08;;;28.73;;
71303;SDS011;59091;47.446;19.148;2023-02-15T13:07:33;57.35;;;28.45;;
71303;SDS011;59091;47.446;19.148;2023-02-15T13:09:58;60.90;;;27.10;;
71303;SDS011;59091;47.446;19.148;2023-02-15T13:12:25;50.70;;;25.10;;
71303;SDS011;59091;47.446;19.148;2023-02-15T13:14:55;50.53;;;24.80;;
71303;SDS011;59091;47.446;19.148;2023-02-15T13:17:24;50.90;;;26.63;;
71303;SDS011;59091;47.446;19.148;2023-02-15T13:19:54;62.05;;;29.83;;
71303;SDS011;59091;47.446;19.148;2023-02-15T13:23:24;51.92;;;27.20;;
71303;SDS011;59091;47.446;19.148;2023-02-15T13:25:27;51.33;;;26.52;;
71303;SDS011;59091;47.446;19.148;2023-02-15T13:28:00;57.85;;;29.42;;
71303;SDS011;59091;47.446;19.148;2023-02-15T13:30:30;55.53;;;28.92;;
71303;SDS011;59091;47.446;19.148;2023-02-15T13:33:06;48.45;;;25.20;;
71303;SDS011;59091;47.446;19.148;2023-02-15T13:35:44;57.53;;;28.27;;
71303;SDS011;59091;47.446;19.148;2023-02-15T13:38:30;57.08;;;28.38;;
71303;SDS011;59091;47.446;19.148;2023-02-15T13:41:21;54.67;;;26.52;;
71303;SDS011;59091;47.446;19.148;2023-02-15T13:44:05;52.10;;;26.20;;
71303;SDS011;59091;47.446;19.148;2023-02-15T13:52:22;49.45;;;24.17;;
71303;SDS011;59091;47.446;19.148;2023-02-15T14:05:57;50.78;;;25.23;;
71303;SDS011;59091;47.446;19.148;2023-02-15T14:11:06;51.67;;;24.52;;
71303;SDS011;59091;47.446;19.148;2023-02-15T14:25:31;51.83;;;23.25;;
71303;SDS011;59091;47.446;19.148;2023-02-15T14:28:51;43.92;;;23.52;;
71303;SDS011;59091;47.446;19.148;2023-02-15T14:31:18;44.95;;;23.83;;
71303;SDS011;59091;47.446;19.148;2023-02-15T14:33:56;51.28;;;24.35;;
71303;SDS011;59091;47.446;19.148;2023-02-15T14:36:22;50.40;;;24.08;;
71303;SDS011;59091;47.446;19.148;2023-02-15T14:41:54;47.05;;;23.02;;
71303;SDS011;59091;47.446;19.148;2023-02-15T14:58:38;36.50;;;19.45;;
71303;SDS011;59091;47.446;19.148;2023-02-15T15:01:28;41.08;;;20.85;;
71303;SDS011;59091;47.446;19.148;2023-02-15T15:03:57;46.95;;;20.92;;
71303;SDS011;59091;47.446;19.148;2023-02-15T15:06:27;39.53;;;20.50;;
71303;SDS011;59091;47.446;19.148;2023-02-15T15:08:57;42.33;;;19.17;;
71303;SDS011;59091;47.446;19.148;2023-02-15T15:13:58;39.50;;;20.05;;
71303;SDS011;59091;47.446;19.148;2023-02-15T15:16:27;39.33;;;20.05;;
71303;SDS011;59091;47.446;19.148;2023-02-15T15:19:11;37.80;;;19.48;;
71303;SDS011;59091;47.446;19.148;2023-02-15T15:32:44;39.35;;;19.95;;
71303;SDS011;59091;47.446;19.148;2023-02-15T15:40:25;38.80;;;19.45;;
71303;SDS011;59091;47.446;19.148;2023-02-15T15:48:57;40.15;;;20.30;;
71303;SDS011;59091;47.446;19.148;2023-02-15T15:51:27;38.35;;;19.52;;
71303;SDS011;59091;47.446;19.148;2023-02-15T15:53:56;39.20;;;19.33;;
71303;SDS011;59091;47.446;19.148;2023-02-15T15:56:26;43.55;;;21.08;;
71303;SDS011;59091;47.446;19.148;2023-02-15T15:58:57;40.45;;;20.13;;
71303;SDS011;59091;47.446;19.148;2023-02-15T16:01:27;38.35;;;19.48;;
71303;SDS011;59091;47.446;19.148;2023-02-15T16:03:57;39.22;;;18.55;;
71303;SDS011;59091;47.446;19.148;2023-02-15T16:06:27;41.45;;;19.92;;
71303;SDS011;59091;47.446;19.148;2023-02-15T16:11:37;44.15;;;20.85;;
71303;SDS011;59091;47.446;19.148;2023-02-15T16:14:13;44.35;;;20.98;;
71303;SDS011;59091;47.446;19.148;2023-02-15T16:16:43;43.10;;;19.83;;
71303;SDS011;59091;47.446;19.148;2023-02-15T16:19:17;42.22;;;19.90;;
71303;SDS011;59091;47.446;19.148;2023-02-15T16:21:48;47.13;;;22.70;;
71303;SDS011;59091;47.446;19.148;2023-02-15T16:29:36;45.90;;;21.35;;
71303;SDS011;59091;47.446;19.148;2023-02-15T16:32:18;45.85;;;20.50;;
71303;SDS011;59091;47.446;19.148;2023-02-15T16:34:52;53.85;;;22.45;;
71303;SDS011;59091;47.446;19.148;2023-02-15T16:37:23;48.28;;;22.42;;
71303;SDS011;59091;47.446;19.148;2023-02-15T16:39:52;43.60;;;22.05;;
71303;SDS011;59091;47.446;19.148;2023-02-15T16:42:19;51.42;;;23.35;;
71303;SDS011;59091;47.446;19.148;2023-02-15T16:44:51;47.20;;;23.00;;
71303;SDS011;59091;47.446;19.148;2023-02-15T16:47:31;48.00;;;23.60;;
71303;SDS011;59091;47.446;19.148;2023-02-15T16:50:01;49.92;;;22.15;;
71303;SDS011;59091;47.446;19.148;2023-02-15T16:52:28;50.95;;;22.65;;
71303;SDS011;59091;47.446;19.148;2023-02-15T16:55:38;51.20;;;23.23;;
71303;SDS011;59091;47.446;19.148;2023-02-15T16:57:45;54.83;;;23.13;;
71303;SDS011;59091;47.446;19.148;2023-02-15T17:00:24;50.75;;;23.27;;
71303;SDS011;59091;47.446;19.148;2023-02-15T17:05:29;59.58;;;27.55;;
71303;SDS011;59091;47.446;19.148;2023-02-15T17:10:38;84.88;;;35.60;;
71303;SDS011;59091;47.446;19.148;2023-02-15T17:13:13;97.35;;;41.30;;
71303;SDS011;59091;47.446;19.148;2023-02-15T17:15:46;93.85;;;38.55;;
71303;SDS011;59091;47.446;19.148;2023-02-15T17:18:26;84.00;;;36.83;;
71303;SDS011;59091;47.446;19.148;2023-02-15T17:20:59;73.00;;;31.63;;
71303;SDS011;59091;47.446;19.148;2023-02-15T17:23:33;72.10;;;30.48;;
71303;SDS011;59091;47.446;19.148;2023-02-15T17:26:11;68.28;;;28.67;;
71303;SDS011;59091;47.446;19.148;2023-02-15T17:28:50;61.40;;;29.35;;
71303;SDS011;59091;47.446;19.148;2023-02-15T17:31:19;66.43;;;30.08;;
71303;SDS011;59091;47.446;19.148;2023-02-15T17:33:46;71.80;;;30.20;;
71303;SDS011;59091;47.446;19.148;2023-02-15T17:36:22;74.55;;;32.75;;
71303;SDS011;59091;47.446;19.148;2023-02-15T17:41:24;69.03;;;30.38;;
71303;SDS011;59091;47.446;19.148;2023-02-15T17:43:50;78.18;;;32.10;;
71303;SDS011;59091;47.446;19.148;2023-02-15T17:46:16;71.28;;;31.33;;
71303;SDS011;59091;47.446;19.148;2023-02-15T17:48:44;71.57;;;30.48;;
71303;SDS011;59091;47.446;19.148;2023-02-15T17:51:12;75.65;;;33.83;;
71303;SDS011;59091;47.446;19.148;2023-02-15T17:53:39;74.05;;;34.90;;
71303;SDS011;59091;47.446;19.148;2023-02-15T17:56:05;81.13;;;38.30;;
71303;SDS011;59091;47.446;19.148;2023-02-15T17:58:35;86.18;;;41.42;;
71303;SDS011;59091;47.446;19.148;2023-02-15T18:01:03;90.00;;;40.10;;
71303;SDS011;59091;47.446;19.148;2023-02-15T18:03:56;85.50;;;42.30;;
71303;SDS011;59091;47.446;19.148;2023-02-15T18:09:25;81.05;;;38.80;;
71303;SDS011;59091;47.446;19.148;2023-02-15T18:12:19;75.95;;;36.13;;
71303;SDS011;59091;47.446;19.148;2023-02-15T18:14:50;66.60;;;31.00;;
71303;SDS011;59091;47.446;19.148;2023-02-15T18:17:18;68.95;;;29.50;;